sensor_id;sensor_type;location;lat;lon;timestamp;temperature;humidity
16974;DHT22;8603;46.944;7.412;2023-03-01T00:01:17;0.40;99.90
16974;DHT22;8603;46.944;7.412;2023-03-01T00:03:43;0.40;99.90
16974;DHT22;8603;46.944;7.412;2023-03-01T00:06:09;0.30;99.90
16974;DHT22;8603;46.944;7.412;2023-03-01T00:08:36;0.30;99.90
16974;DHT22;8603;46.944;7.412;2023-03-01T00:11:07;0.40;99.90
16974;DHT22;8603;46.944;7.412;2023-03-01T00:13:34;0.30;99.90
16974;DHT22;8603;46.944;7.412;2023-03-01T00:16:06;0.30;99.90
16974;DHT22;8603;46.944;7.412;2023-03-01T00:18:32;0.30;99.90
16974;DHT22;8603;46.944;7.412;2023-03-01T00:20:58;0.30;99.90
16974;DHT22;8603;46.944;7.412;2023-03-01T00:23:24;0.30;99.90
16974;DHT22;8603;46.944;7.412;2023-03-01T00:25:50;0.30;99.90
16974;DHT22;8603;46.944;7.412;2023-03-01T00:28:17;0.30;99.90
16974;DHT22;8603;46.944;7.412;2023-03-01T00:30:42;0.40;99.90
16974;DHT22;8603;46.944;7.412;2023-03-01T00:33:08;0.30;99.90
16974;DHT22;8603;46.944;7.412;2023-03-01T00:35:34;0.30;99.90
16974;DHT22;8603;46.944;7.412;2023-03-01T00:38:00;0.30;99.90
16974;DHT22;8603;46.944;7.412;2023-03-01T00:40:27;0.30;99.90
16974;DHT22;8603;46.944;7.412;2023-03-01T00:42:53;0.30;99.90
16974;DHT22;8603;46.944;7.412;2023-03-01T00:45:19;0.30;99.90
16974;DHT22;8603;46.944;7.412;2023-03-01T00:47:44;0.30;99.90
16974;DHT22;8603;46.944;7.412;2023-03-01T00:50:11;0.30;99.90
16974;DHT22;8603;46.944;7.412;2023-03-01T00:52:37;0.30;99.90
16974;DHT22;8603;46.944;7.412;2023-03-01T00:55:03;0.30;99.90
16974;DHT22;8603;46.944;7.412;2023-03-01T00:57:29;0.30;99.90
16974;DHT22;8603;46.944;7.412;2023-03-01T00:59:54;0.30;99.90
16974;DHT22;8603;46.944;7.412;2023-03-01T01:02:20;0.30;99.90
16974;DHT22;8603;46.944;7.412;2023-03-01T01:04:46;0.30;99.90
16974;DHT22;8603;46.944;7.412;2023-03-01T01:07:13;0.20;99.90
16974;DHT22;8603;46.944;7.412;2023-03-01T01:09:38;0.20;99.90
16974;DHT22;8603;46.944;7.412;2023-03-01T01:12:04;0.20;99.90
16974;DHT22;8603;46.944;7.412;2023-03-01T01:14:30;0.20;99.90
16974;DHT22;8603;46.944;7.412;2023-03-01T01:16:56;0.20;99.90
16974;DHT22;8603;46.944;7.412;2023-03-01T01:19:23;0.10;99.90
16974;DHT22;8603;46.944;7.412;2023-03-01T01:21:49;0.10;99.90
16974;DHT22;8603;46.944;7.412;2023-03-01T01:24:15;0.10;99.90
16974;DHT22;8603;46.944;7.412;2023-03-01T01:26:41;0.10;99.90
16974;DHT22;8603;46.944;7.412;2023-03-01T01:29:07;0.30;99.90
16974;DHT22;8603;46.944;7.412;2023-03-01T01:31:34;0.20;99.90
16974;DHT22;8603;46.944;7.412;2023-03-01T01:34:02;0.20;99.90
16974;DHT22;8603;46.944;7.412;2023-03-01T01:36:27;0.20;99.90
16974;DHT22;8603;46.944;7.412;2023-03-01T01:38:53;0.20;99.90
16974;DHT22;8603;46.944;7.412;2023-03-01T01:41:20;0.20;99.90
16974;DHT22;8603;46.944;7.412;2023-03-01T01:43:49;0.20;99.90
16974;DHT22;8603;46.944;7.412;2023-03-01T01:46:30;0.20;99.90
16974;DHT22;8603;46.944;7.412;2023-03-01T01:49:00;0.20;99.90
16974;DHT22;8603;46.944;7.412;2023-03-01T01:51:36;0.20;99.90
16974;DHT22;8603;46.944;7.412;2023-03-01T01:54:19;0.20;99.90
16974;DHT22;8603;46.944;7.412;2023-03-01T01:56:52;0.20;99.90
16974;DHT22;8603;46.944;7.412;2023-03-01T01:59:20;0.20;99.90
16974;DHT22;8603;46.944;7.412;2023-03-01T02:01:53;0.20;99.90
16974;DHT22;8603;46.944;7.412;2023-03-01T02:04:19;0.20;99.90
16974;DHT22;8603;46.944;7.412;2023-03-01T02:06:53;0.10;99.90
16974;DHT22;8603;46.944;7.412;2023-03-01T02:09:25;0.10;99.90
16974;DHT22;8603;46.944;7.412;2023-03-01T02:11:52;0.20;99.90
16974;DHT22;8603;46.944;7.412;2023-03-01T02:14:18;0.20;99.90
16974;DHT22;8603;46.944;7.412;2023-03-01T02:16:44;0.20;99.90
16974;DHT22;8603;46.944;7.412;2023-03-01T02:19:18;0.20;99.90
16974;DHT22;8603;46.944;7.412;2023-03-01T02:21:59;0.20;99.90
16974;DHT22;8603;46.944;7.412;2023-03-01T02:27:11;0.20;99.90
16974;DHT22;8603;46.944;7.412;2023-03-01T02:29:37;0.20;99.90
16974;DHT22;8603;46.944;7.412;2023-03-01T02:32:04;0.10;99.90
16974;DHT22;8603;46.944;7.412;2023-03-01T02:34:31;0.10;99.90
16974;DHT22;8603;46.944;7.412;2023-03-01T02:37:01;0.20;99.90
16974;DHT22;8603;46.944;7.412;2023-03-01T02:39:40;0.10;99.90
16974;DHT22;8603;46.944;7.412;2023-03-01T02:42:10;0.10;99.90
16974;DHT22;8603;46.944;7.412;2023-03-01T02:44:37;0.10;99.90
16974;DHT22;8603;46.944;7.412;2023-03-01T02:47:03;0.10;99.90
16974;DHT22;8603;46.944;7.412;2023-03-01T02:49:31;0.10;99.90
16974;DHT22;8603;46.944;7.412;2023-03-01T02:55:14;0.10;99.90
16974;DHT22;8603;46.944;7.412;2023-03-01T02:57:43;0.10;99.90
16974;DHT22;8603;46.944;7.412;2023-03-01T03:00:12;0.10;99.90
16974;DHT22;8603;46.944;7.412;2023-03-01T03:02:45;0.10;99.90
16974;DHT22;8603;46.944;7.412;2023-03-01T03:05:23;0.10;99.90
16974;DHT22;8603;46.944;7.412;2023-03-01T03:07:50;0.10;99.90
16974;DHT22;8603;46.944;7.412;2023-03-01T03:10:20;0.10;99.90
16974;DHT22;8603;46.944;7.412;2023-03-01T03:12:57;0.00;99.90
16974;DHT22;8603;46.944;7.412;2023-03-01T03:15:23;0.10;99.90
16974;DHT22;8603;46.944;7.412;2023-03-01T03:17:50;0.00;99.90
16974;DHT22;8603;46.944;7.412;2023-03-01T03:20:17;0.00;99.90
16974;DHT22;8603;46.944;7.412;2023-03-01T03:22:48;0.00;99.90
16974;DHT22;8603;46.944;7.412;2023-03-01T03:25:15;0.00;99.90
16974;DHT22;8603;46.944;7.412;2023-03-01T03:27:42;0.10;99.90
16974;DHT22;8603;46.944;7.412;2023-03-01T03:30:12;0.00;99.90
16974;DHT22;8603;46.944;7.412;2023-03-01T03:32:39;0.00;99.90
16974;DHT22;8603;46.944;7.412;2023-03-01T03:35:08;0.00;99.90
16974;DHT22;8603;46.944;7.412;2023-03-01T03:37:40;0.10;99.90
16974;DHT22;8603;46.944;7.412;2023-03-01T03:40:28;0.00;99.90
16974;DHT22;8603;46.944;7.412;2023-03-01T03:42:54;0.00;99.90
16974;DHT22;8603;46.944;7.412;2023-03-01T03:45:20;0.00;99.90
16974;DHT22;8603;46.944;7.412;2023-03-01T03:47:45;0.00;99.90
16974;DHT22;8603;46.944;7.412;2023-03-01T03:50:12;-0.10;99.90
16974;DHT22;8603;46.944;7.412;2023-03-01T03:52:38;0.00;99.90
16974;DHT22;8603;46.944;7.412;2023-03-01T03:55:05;-0.10;99.90
16974;DHT22;8603;46.944;7.412;2023-03-01T03:57:40;-0.10;99.90
16974;DHT22;8603;46.944;7.412;2023-03-01T04:00:08;0.00;99.90
16974;DHT22;8603;46.944;7.412;2023-03-01T04:02:41;0.00;99.90
16974;DHT22;8603;46.944;7.412;2023-03-01T04:05:09;0.00;99.90
16974;DHT22;8603;46.944;7.412;2023-03-01T04:07:36;0.00;99.90
16974;DHT22;8603;46.944;7.412;2023-03-01T04:10:03;0.10;99.90
16974;DHT22;8603;46.944;7.412;2023-03-01T04:12:29;0.10;99.90
16974;DHT22;8603;46.944;7.412;2023-03-01T04:14:55;0.00;99.90
16974;DHT22;8603;46.944;7.412;2023-03-01T04:17:20;0.00;99.90
16974;DHT22;8603;46.944;7.412;2023-03-01T04:19:46;0.00;99.90
16974;DHT22;8603;46.944;7.412;2023-03-01T04:22:14;0.00;99.90
16974;DHT22;8603;46.944;7.412;2023-03-01T04:24:42;0.00;99.90
16974;DHT22;8603;46.944;7.412;2023-03-01T04:27:09;0.00;99.90
16974;DHT22;8603;46.944;7.412;2023-03-01T04:29:34;-0.10;99.90
16974;DHT22;8603;46.944;7.412;2023-03-01T04:32:00;-0.10;99.90
16974;DHT22;8603;46.944;7.412;2023-03-01T04:34:25;-0.10;99.90
16974;DHT22;8603;46.944;7.412;2023-03-01T04:36:54;-0.10;99.90
16974;DHT22;8603;46.944;7.412;2023-03-01T04:39:20;-0.10;99.90
16974;DHT22;8603;46.944;7.412;2023-03-01T04:41:46;-0.10;99.90
16974;DHT22;8603;46.944;7.412;2023-03-01T04:44:12;-0.10;99.90
16974;DHT22;8603;46.944;7.412;2023-03-01T04:46:38;-0.10;99.90
16974;DHT22;8603;46.944;7.412;2023-03-01T04:49:03;-0.10;99.90
16974;DHT22;8603;46.944;7.412;2023-03-01T04:51:29;0.00;99.90
16974;DHT22;8603;46.944;7.412;2023-03-01T04:53:54;0.00;99.90
16974;DHT22;8603;46.944;7.412;2023-03-01T04:56:20;0.00;99.90
16974;DHT22;8603;46.944;7.412;2023-03-01T04:58:48;0.00;99.90
16974;DHT22;8603;46.944;7.412;2023-03-01T05:01:16;0.00;99.90
16974;DHT22;8603;46.944;7.412;2023-03-01T05:03:50;0.00;99.90
16974;DHT22;8603;46.944;7.412;2023-03-01T05:06:17;0.00;99.90
16974;DHT22;8603;46.944;7.412;2023-03-01T05:08:43;0.00;99.90
16974;DHT22;8603;46.944;7.412;2023-03-01T05:11:09;0.00;99.90
16974;DHT22;8603;46.944;7.412;2023-03-01T05:13:36;0.00;99.90
16974;DHT22;8603;46.944;7.412;2023-03-01T05:16:03;0.00;99.90
16974;DHT22;8603;46.944;7.412;2023-03-01T05:18:31;0.00;99.90
16974;DHT22;8603;46.944;7.412;2023-03-01T05:21:04;0.00;99.90
16974;DHT22;8603;46.944;7.412;2023-03-01T05:23:31;0.00;99.90
16974;DHT22;8603;46.944;7.412;2023-03-01T05:26:00;0.00;99.90
16974;DHT22;8603;46.944;7.412;2023-03-01T05:28:26;0.00;99.90
16974;DHT22;8603;46.944;7.412;2023-03-01T05:30:53;0.00;99.90
16974;DHT22;8603;46.944;7.412;2023-03-01T05:33:19;0.00;99.90
16974;DHT22;8603;46.944;7.412;2023-03-01T05:35:47;-0.10;99.90
16974;DHT22;8603;46.944;7.412;2023-03-01T05:38:15;0.00;99.90
16974;DHT22;8603;46.944;7.412;2023-03-01T05:40:46;0.10;99.90
16974;DHT22;8603;46.944;7.412;2023-03-01T05:43:13;0.00;99.90
16974;DHT22;8603;46.944;7.412;2023-03-01T05:45:40;0.10;99.90
16974;DHT22;8603;46.944;7.412;2023-03-01T05:48:07;-0.10;99.90
16974;DHT22;8603;46.944;7.412;2023-03-01T05:50:36;0.00;99.90
16974;DHT22;8603;46.944;7.412;2023-03-01T05:53:05;-0.10;99.90
16974;DHT22;8603;46.944;7.412;2023-03-01T05:55:32;-0.10;99.90
16974;DHT22;8603;46.944;7.412;2023-03-01T05:57:59;0.00;99.90
16974;DHT22;8603;46.944;7.412;2023-03-01T06:00:25;-0.10;99.90
16974;DHT22;8603;46.944;7.412;2023-03-01T06:02:53;-0.10;99.90
16974;DHT22;8603;46.944;7.412;2023-03-01T06:05:19;0.00;99.90
16974;DHT22;8603;46.944;7.412;2023-03-01T06:07:46;0.00;99.90
16974;DHT22;8603;46.944;7.412;2023-03-01T06:10:13;0.00;99.90
16974;DHT22;8603;46.944;7.412;2023-03-01T06:12:40;0.00;99.90
16974;DHT22;8603;46.944;7.412;2023-03-01T06:15:06;0.00;99.90
16974;DHT22;8603;46.944;7.412;2023-03-01T06:17:34;0.00;99.90
16974;DHT22;8603;46.944;7.412;2023-03-01T06:20:04;0.00;99.90
16974;DHT22;8603;46.944;7.412;2023-03-01T06:22:30;0.00;99.90
16974;DHT22;8603;46.944;7.412;2023-03-01T06:24:58;0.00;99.90
16974;DHT22;8603;46.944;7.412;2023-03-01T06:27:26;0.00;99.90
16974;DHT22;8603;46.944;7.412;2023-03-01T06:29:53;0.20;99.90
16974;DHT22;8603;46.944;7.412;2023-03-01T06:32:19;0.00;99.90
16974;DHT22;8603;46.944;7.412;2023-03-01T06:34:45;0.00;99.90
16974;DHT22;8603;46.944;7.412;2023-03-01T06:37:10;0.00;99.90
16974;DHT22;8603;46.944;7.412;2023-03-01T06:39:36;0.00;99.90
16974;DHT22;8603;46.944;7.412;2023-03-01T06:42:02;0.10;99.90
16974;DHT22;8603;46.944;7.412;2023-03-01T06:44:28;0.10;99.90
16974;DHT22;8603;46.944;7.412;2023-03-01T06:46:54;0.10;99.90
16974;DHT22;8603;46.944;7.412;2023-03-01T06:49:20;0.20;99.90
16974;DHT22;8603;46.944;7.412;2023-03-01T06:51:46;0.10;99.90
16974;DHT22;8603;46.944;7.412;2023-03-01T06:54:12;0.10;99.90
16974;DHT22;8603;46.944;7.412;2023-03-01T06:56:37;0.10;99.90
16974;DHT22;8603;46.944;7.412;2023-03-01T06:59:03;0.10;99.90
16974;DHT22;8603;46.944;7.412;2023-03-01T07:01:30;0.10;99.90
16974;DHT22;8603;46.944;7.412;2023-03-01T07:03:56;0.10;99.90
16974;DHT22;8603;46.944;7.412;2023-03-01T07:06:22;0.10;99.90
16974;DHT22;8603;46.944;7.412;2023-03-01T07:08:48;0.10;99.90
16974;DHT22;8603;46.944;7.412;2023-03-01T07:11:14;0.10;99.90
16974;DHT22;8603;46.944;7.412;2023-03-01T07:13:40;0.20;99.90
16974;DHT22;8603;46.944;7.412;2023-03-01T07:16:06;0.20;99.90
16974;DHT22;8603;46.944;7.412;2023-03-01T07:18:32;0.20;99.90
16974;DHT22;8603;46.944;7.412;2023-03-01T07:20:58;0.20;99.90
16974;DHT22;8603;46.944;7.412;2023-03-01T07:23:23;0.20;99.90
16974;DHT22;8603;46.944;7.412;2023-03-01T07:25:53;0.20;99.90
16974;DHT22;8603;46.944;7.412;2023-03-01T07:28:19;0.20;99.90
16974;DHT22;8603;46.944;7.412;2023-03-01T07:30:45;0.20;99.90
16974;DHT22;8603;46.944;7.412;2023-03-01T07:33:10;0.20;99.90
16974;DHT22;8603;46.944;7.412;2023-03-01T07:35:45;0.20;99.90
16974;DHT22;8603;46.944;7.412;2023-03-01T07:38:10;0.20;99.90
16974;DHT22;8603;46.944;7.412;2023-03-01T07:40:36;0.30;99.90
16974;DHT22;8603;46.944;7.412;2023-03-01T07:43:02;0.50;99.90
16974;DHT22;8603;46.944;7.412;2023-03-01T07:45:28;0.40;99.90
16974;DHT22;8603;46.944;7.412;2023-03-01T07:47:55;0.50;99.90
16974;DHT22;8603;46.944;7.412;2023-03-01T07:50:21;0.30;99.90
16974;DHT22;8603;46.944;7.412;2023-03-01T07:52:49;0.30;99.90
16974;DHT22;8603;46.944;7.412;2023-03-01T07:55:18;0.40;99.90
16974;DHT22;8603;46.944;7.412;2023-03-01T07:57:44;0.40;99.90
16974;DHT22;8603;46.944;7.412;2023-03-01T08:00:11;0.40;99.90
16974;DHT22;8603;46.944;7.412;2023-03-01T08:02:37;0.40;99.90
16974;DHT22;8603;46.944;7.412;2023-03-01T08:05:03;0.30;99.90
16974;DHT22;8603;46.944;7.412;2023-03-01T08:07:28;0.40;99.90
16974;DHT22;8603;46.944;7.412;2023-03-01T08:09:54;0.40;99.90
16974;DHT22;8603;46.944;7.412;2023-03-01T08:12:19;0.40;99.90
16974;DHT22;8603;46.944;7.412;2023-03-01T08:14:45;0.40;99.90
16974;DHT22;8603;46.944;7.412;2023-03-01T08:17:13;0.50;99.90
16974;DHT22;8603;46.944;7.412;2023-03-01T08:19:39;0.50;99.90
16974;DHT22;8603;46.944;7.412;2023-03-01T08:22:05;0.60;99.90
16974;DHT22;8603;46.944;7.412;2023-03-01T08:24:30;0.60;99.90
16974;DHT22;8603;46.944;7.412;2023-03-01T08:26:56;0.50;99.90
16974;DHT22;8603;46.944;7.412;2023-03-01T08:29:22;0.50;99.90
16974;DHT22;8603;46.944;7.412;2023-03-01T08:31:50;0.50;99.90
16974;DHT22;8603;46.944;7.412;2023-03-01T08:34:17;0.50;99.90
16974;DHT22;8603;46.944;7.412;2023-03-01T08:36:45;0.50;99.90
16974;DHT22;8603;46.944;7.412;2023-03-01T08:39:12;0.60;99.90
16974;DHT22;8603;46.944;7.412;2023-03-01T08:41:39;0.60;99.90
16974;DHT22;8603;46.944;7.412;2023-03-01T08:44:05;0.60;99.90
16974;DHT22;8603;46.944;7.412;2023-03-01T08:46:36;0.60;99.90
16974;DHT22;8603;46.944;7.412;2023-03-01T08:49:06;0.70;99.90
16974;DHT22;8603;46.944;7.412;2023-03-01T08:51:32;0.80;99.90
16974;DHT22;8603;46.944;7.412;2023-03-01T08:54:06;0.80;99.90
16974;DHT22;8603;46.944;7.412;2023-03-01T08:56:32;0.70;99.90
16974;DHT22;8603;46.944;7.412;2023-03-01T08:58:58;0.80;99.90
16974;DHT22;8603;46.944;7.412;2023-03-01T09:01:26;0.80;99.90
16974;DHT22;8603;46.944;7.412;2023-03-01T09:03:51;0.70;99.90
16974;DHT22;8603;46.944;7.412;2023-03-01T09:06:17;0.80;99.90
16974;DHT22;8603;46.944;7.412;2023-03-01T09:08:45;0.80;99.90
16974;DHT22;8603;46.944;7.412;2023-03-01T09:11:17;0.80;99.90
16974;DHT22;8603;46.944;7.412;2023-03-01T09:13:44;0.80;99.90
16974;DHT22;8603;46.944;7.412;2023-03-01T09:16:11;0.90;99.90
16974;DHT22;8603;46.944;7.412;2023-03-01T09:18:45;0.90;99.90
16974;DHT22;8603;46.944;7.412;2023-03-01T09:21:13;0.90;99.90
16974;DHT22;8603;46.944;7.412;2023-03-01T09:23:41;1.00;99.90
16974;DHT22;8603;46.944;7.412;2023-03-01T09:26:08;1.00;99.90
16974;DHT22;8603;46.944;7.412;2023-03-01T09:28:35;1.00;99.90
16974;DHT22;8603;46.944;7.412;2023-03-01T09:31:02;1.00;99.90
16974;DHT22;8603;46.944;7.412;2023-03-01T09:33:31;1.10;99.90
16974;DHT22;8603;46.944;7.412;2023-03-01T09:35:58;1.10;99.90
16974;DHT22;8603;46.944;7.412;2023-03-01T09:38:24;1.10;99.90
16974;DHT22;8603;46.944;7.412;2023-03-01T09:40:50;1.10;99.90
16974;DHT22;8603;46.944;7.412;2023-03-01T09:45:54;1.30;99.90
16974;DHT22;8603;46.944;7.412;2023-03-01T09:48:24;1.20;99.90
16974;DHT22;8603;46.944;7.412;2023-03-01T09:50:51;1.40;99.90
16974;DHT22;8603;46.944;7.412;2023-03-01T09:53:23;1.40;99.90
16974;DHT22;8603;46.944;7.412;2023-03-01T09:56:14;1.30;99.90
16974;DHT22;8603;46.944;7.412;2023-03-01T10:01:53;1.20;99.90
16974;DHT22;8603;46.944;7.412;2023-03-01T10:04:32;1.20;99.90
16974;DHT22;8603;46.944;7.412;2023-03-01T10:07:27;1.30;99.90
16974;DHT22;8603;46.944;7.412;2023-03-01T10:09:53;1.20;99.90
16974;DHT22;8603;46.944;7.412;2023-03-01T10:12:30;1.30;99.90
16974;DHT22;8603;46.944;7.412;2023-03-01T10:17:57;1.40;99.90
16974;DHT22;8603;46.944;7.412;2023-03-01T10:20:53;1.50;99.90
16974;DHT22;8603;46.944;7.412;2023-03-01T10:23:19;1.40;99.90
16974;DHT22;8603;46.944;7.412;2023-03-01T10:28:38;1.50;99.90
16974;DHT22;8603;46.944;7.412;2023-03-01T10:31:13;1.60;99.90
16974;DHT22;8603;46.944;7.412;2023-03-01T10:33:40;1.60;99.90
16974;DHT22;8603;46.944;7.412;2023-03-01T10:36:06;1.60;99.90
16974;DHT22;8603;46.944;7.412;2023-03-01T10:38:54;1.60;99.90
16974;DHT22;8603;46.944;7.412;2023-03-01T10:41:25;1.60;99.90
16974;DHT22;8603;46.944;7.412;2023-03-01T10:43:53;1.60;99.90
16974;DHT22;8603;46.944;7.412;2023-03-01T10:49:22;1.80;99.90
16974;DHT22;8603;46.944;7.412;2023-03-01T10:51:50;1.70;99.90
16974;DHT22;8603;46.944;7.412;2023-03-01T10:54:28;1.90;99.90
16974;DHT22;8603;46.944;7.412;2023-03-01T10:56:56;2.00;99.90
16974;DHT22;8603;46.944;7.412;2023-03-01T11:02:14;1.70;99.90
16974;DHT22;8603;46.944;7.412;2023-03-01T11:04:40;2.00;99.90
16974;DHT22;8603;46.944;7.412;2023-03-01T11:07:21;1.80;99.90
16974;DHT22;8603;46.944;7.412;2023-03-01T11:09:46;1.80;99.90
16974;DHT22;8603;46.944;7.412;2023-03-01T11:12:14;1.80;99.90
16974;DHT22;8603;46.944;7.412;2023-03-01T11:14:50;1.80;99.90
16974;DHT22;8603;46.944;7.412;2023-03-01T11:20:29;1.90;99.90
16974;DHT22;8603;46.944;7.412;2023-03-01T11:22:59;2.00;99.90
16974;DHT22;8603;46.944;7.412;2023-03-01T11:25:31;1.90;99.90
16974;DHT22;8603;46.944;7.412;2023-03-01T11:28:00;2.00;99.90
16974;DHT22;8603;46.944;7.412;2023-03-01T11:33:33;2.00;99.90
16974;DHT22;8603;46.944;7.412;2023-03-01T11:36:53;2.00;99.90
16974;DHT22;8603;46.944;7.412;2023-03-01T11:38:53;2.00;99.90
16974;DHT22;8603;46.944;7.412;2023-03-01T11:41:25;2.10;99.90
16974;DHT22;8603;46.944;7.412;2023-03-01T11:44:00;2.20;99.90
16974;DHT22;8603;46.944;7.412;2023-03-01T11:46:39;2.20;99.90
16974;DHT22;8603;46.944;7.412;2023-03-01T11:52:03;2.30;99.90
16974;DHT22;8603;46.944;7.412;2023-03-01T12:00:51;2.40;99.90
16974;DHT22;8603;46.944;7.412;2023-03-01T12:11:41;2.60;99.90
16974;DHT22;8603;46.944;7.412;2023-03-01T12:14:39;2.50;99.90
16974;DHT22;8603;46.944;7.412;2023-03-01T12:29:23;2.40;99.90
16974;DHT22;8603;46.944;7.412;2023-03-01T12:39:50;2.50;99.90
16974;DHT22;8603;46.944;7.412;2023-03-01T12:42:30;2.50;99.90
16974;DHT22;8603;46.944;7.412;2023-03-01T12:50:20;2.80;99.90
16974;DHT22;8603;46.944;7.412;2023-03-01T12:52:57;2.80;99.90
16974;DHT22;8603;46.944;7.412;2023-03-01T12:55:33;2.80;99.90
16974;DHT22;8603;46.944;7.412;2023-03-01T12:58:01;2.70;99.90
16974;DHT22;8603;46.944;7.412;2023-03-01T13:03:44;2.60;99.90
16974;DHT22;8603;46.944;7.412;2023-03-01T13:09:14;2.60;99.90
16974;DHT22;8603;46.944;7.412;2023-03-01T13:11:45;2.60;99.90
16974;DHT22;8603;46.944;7.412;2023-03-01T13:16:46;2.50;99.90
16974;DHT22;8603;46.944;7.412;2023-03-01T13:19:19;2.50;99.90
16974;DHT22;8603;46.944;7.412;2023-03-01T13:21:47;2.60;99.90
16974;DHT22;8603;46.944;7.412;2023-03-01T13:24:37;2.60;99.90
16974;DHT22;8603;46.944;7.412;2023-03-01T13:27:32;2.50;99.90
16974;DHT22;8603;46.944;7.412;2023-03-01T13:30:01;2.60;99.90
16974;DHT22;8603;46.944;7.412;2023-03-01T13:32:32;2.60;99.90
16974;DHT22;8603;46.944;7.412;2023-03-01T13:35:06;2.70;99.90
16974;DHT22;8603;46.944;7.412;2023-03-01T13:37:48;2.80;99.90
16974;DHT22;8603;46.944;7.412;2023-03-01T13:42:55;2.60;99.90
16974;DHT22;8603;46.944;7.412;2023-03-01T13:45:39;2.50;99.90
16974;DHT22;8603;46.944;7.412;2023-03-01T13:48:27;2.50;99.90
16974;DHT22;8603;46.944;7.412;2023-03-01T13:51:06;2.40;99.90
16974;DHT22;8603;46.944;7.412;2023-03-01T13:53:41;2.30;99.90
16974;DHT22;8603;46.944;7.412;2023-03-01T13:56:10;2.30;99.90
16974;DHT22;8603;46.944;7.412;2023-03-01T13:58:55;2.40;99.90
16974;DHT22;8603;46.944;7.412;2023-03-01T14:01:31;2.40;99.90
16974;DHT22;8603;46.944;7.412;2023-03-01T14:04:00;2.50;99.90
16974;DHT22;8603;46.944;7.412;2023-03-01T14:06:29;2.50;99.90
16974;DHT22;8603;46.944;7.412;2023-03-01T14:09:25;2.60;99.90
16974;DHT22;8603;46.944;7.412;2023-03-01T14:20:14;2.50;99.90
16974;DHT22;8603;46.944;7.412;2023-03-01T14:22:48;2.60;99.90
16974;DHT22;8603;46.944;7.412;2023-03-01T14:25:35;2.60;99.90
16974;DHT22;8603;46.944;7.412;2023-03-01T14:28:25;2.60;99.90
16974;DHT22;8603;46.944;7.412;2023-03-01T14:31:00;2.60;99.90
16974;DHT22;8603;46.944;7.412;2023-03-01T14:38:38;2.50;99.90
16974;DHT22;8603;46.944;7.412;2023-03-01T14:43:45;2.40;99.90
16974;DHT22;8603;46.944;7.412;2023-03-01T14:49:19;2.30;99.90
16974;DHT22;8603;46.944;7.412;2023-03-01T14:54:44;2.20;99.90
16974;DHT22;8603;46.944;7.412;2023-03-01T14:57:22;2.30;99.90
16974;DHT22;8603;46.944;7.412;2023-03-01T14:59:48;2.30;99.90
16974;DHT22;8603;46.944;7.412;2023-03-01T15:02:19;2.40;99.90
16974;DHT22;8603;46.944;7.412;2023-03-01T15:04:46;2.30;99.90
16974;DHT22;8603;46.944;7.412;2023-03-01T15:07:14;2.30;99.90
16974;DHT22;8603;46.944;7.412;2023-03-01T15:09:40;2.40;99.90
16974;DHT22;8603;46.944;7.412;2023-03-01T15:14:54;2.40;99.90
16974;DHT22;8603;46.944;7.412;2023-03-01T15:19:54;2.50;99.90
16974;DHT22;8603;46.944;7.412;2023-03-01T15:22:21;2.40;99.90
16974;DHT22;8603;46.944;7.412;2023-03-01T15:24:50;2.40;99.90
16974;DHT22;8603;46.944;7.412;2023-03-01T15:27:18;2.50;99.90
16974;DHT22;8603;46.944;7.412;2023-03-01T15:29:56;2.50;99.90
16974;DHT22;8603;46.944;7.412;2023-03-01T15:32:31;2.40;99.90
16974;DHT22;8603;46.944;7.412;2023-03-01T15:35:00;2.40;99.90
16974;DHT22;8603;46.944;7.412;2023-03-01T15:37:44;2.40;99.90
16974;DHT22;8603;46.944;7.412;2023-03-01T15:42:50;2.30;99.90
16974;DHT22;8603;46.944;7.412;2023-03-01T15:48:13;2.30;99.90
16974;DHT22;8603;46.944;7.412;2023-03-01T15:50:40;2.20;99.90
16974;DHT22;8603;46.944;7.412;2023-03-01T15:53:12;2.20;99.90
16974;DHT22;8603;46.944;7.412;2023-03-01T15:55:40;2.10;99.90
16974;DHT22;8603;46.944;7.412;2023-03-01T15:58:13;2.10;99.90
16974;DHT22;8603;46.944;7.412;2023-03-01T16:00:39;2.10;99.90
16974;DHT22;8603;46.944;7.412;2023-03-01T16:03:06;2.10;99.90
16974;DHT22;8603;46.944;7.412;2023-03-01T16:05:38;2.00;99.90
16974;DHT22;8603;46.944;7.412;2023-03-01T16:08:05;2.10;99.90
16974;DHT22;8603;46.944;7.412;2023-03-01T16:10:32;2.00;99.90
16974;DHT22;8603;46.944;7.412;2023-03-01T16:12:58;2.00;99.90
16974;DHT22;8603;46.944;7.412;2023-03-01T16:15:30;2.10;99.90
16974;DHT22;8603;46.944;7.412;2023-03-01T16:17:57;2.00;99.90
16974;DHT22;8603;46.944;7.412;2023-03-01T16:20:29;2.00;99.90
16974;DHT22;8603;46.944;7.412;2023-03-01T16:22:59;1.90;99.90
16974;DHT22;8603;46.944;7.412;2023-03-01T16:25:30;1.90;99.90
16974;DHT22;8603;46.944;7.412;2023-03-01T16:27:57;1.90;99.90
16974;DHT22;8603;46.944;7.412;2023-03-01T16:30:25;1.90;99.90
16974;DHT22;8603;46.944;7.412;2023-03-01T16:32:51;1.80;99.90
16974;DHT22;8603;46.944;7.412;2023-03-01T16:35:19;1.80;99.90
16974;DHT22;8603;46.944;7.412;2023-03-01T16:37:46;1.80;99.90
16974;DHT22;8603;46.944;7.412;2023-03-01T16:40:21;1.80;99.90
16974;DHT22;8603;46.944;7.412;2023-03-01T16:42:48;1.80;99.90
16974;DHT22;8603;46.944;7.412;2023-03-01T16:45:14;1.80;99.90
16974;DHT22;8603;46.944;7.412;2023-03-01T16:47:40;1.80;99.90
16974;DHT22;8603;46.944;7.412;2023-03-01T16:50:05;1.70;99.90
16974;DHT22;8603;46.944;7.412;2023-03-01T16:52:33;1.70;99.90
16974;DHT22;8603;46.944;7.412;2023-03-01T16:54:59;1.70;99.90
16974;DHT22;8603;46.944;7.412;2023-03-01T16:57:24;1.70;99.90
16974;DHT22;8603;46.944;7.412;2023-03-01T16:59:53;1.70;99.90
16974;DHT22;8603;46.944;7.412;2023-03-01T17:02:19;1.70;99.90
16974;DHT22;8603;46.944;7.412;2023-03-01T17:04:45;1.60;99.90
16974;DHT22;8603;46.944;7.412;2023-03-01T17:07:11;1.60;99.90
16974;DHT22;8603;46.944;7.412;2023-03-01T17:09:37;1.60;99.90
16974;DHT22;8603;46.944;7.412;2023-03-01T17:12:04;1.60;99.90
16974;DHT22;8603;46.944;7.412;2023-03-01T17:14:29;1.70;99.90
16974;DHT22;8603;46.944;7.412;2023-03-01T17:16:55;1.60;99.90
16974;DHT22;8603;46.944;7.412;2023-03-01T17:19:21;1.60;99.90
16974;DHT22;8603;46.944;7.412;2023-03-01T17:21:46;1.60;99.90
16974;DHT22;8603;46.944;7.412;2023-03-01T17:24:13;1.60;99.90
16974;DHT22;8603;46.944;7.412;2023-03-01T17:26:41;1.60;99.90
16974;DHT22;8603;46.944;7.412;2023-03-01T17:29:07;1.60;99.90
16974;DHT22;8603;46.944;7.412;2023-03-01T17:31:34;1.50;99.90
16974;DHT22;8603;46.944;7.412;2023-03-01T17:34:00;1.50;99.90
16974;DHT22;8603;46.944;7.412;2023-03-01T17:36:26;1.40;99.90
16974;DHT22;8603;46.944;7.412;2023-03-01T17:38:52;1.40;99.90
16974;DHT22;8603;46.944;7.412;2023-03-01T17:41:18;1.40;99.90
16974;DHT22;8603;46.944;7.412;2023-03-01T17:43:45;1.40;99.90
16974;DHT22;8603;46.944;7.412;2023-03-01T17:46:15;1.40;99.90
16974;DHT22;8603;46.944;7.412;2023-03-01T17:48:47;1.40;99.90
16974;DHT22;8603;46.944;7.412;2023-03-01T17:51:16;1.50;99.90
16974;DHT22;8603;46.944;7.412;2023-03-01T17:53:45;1.30;99.90
16974;DHT22;8603;46.944;7.412;2023-03-01T17:56:11;1.40;99.90
16974;DHT22;8603;46.944;7.412;2023-03-01T17:58:37;1.30;99.90
16974;DHT22;8603;46.944;7.412;2023-03-01T18:01:10;1.30;99.90
16974;DHT22;8603;46.944;7.412;2023-03-01T18:03:38;1.40;99.90
16974;DHT22;8603;46.944;7.412;2023-03-01T18:08:37;1.30;99.90
16974;DHT22;8603;46.944;7.412;2023-03-01T18:11:03;1.30;99.90
16974;DHT22;8603;46.944;7.412;2023-03-01T18:13:29;1.30;99.90